createdAt,value
2023-03-13T00:01:32.613Z,5.70
2023-03-13T00:04:00.991Z,5.70
2023-03-13T00:06:34.045Z,5.70
2023-03-13T00:09:03.349Z,5.60
2023-03-13T00:11:31.505Z,5.60
2023-03-13T00:14:06.362Z,5.60
2023-03-13T00:16:37.392Z,5.60
2023-03-13T00:19:06.741Z,5.60
2023-03-13T00:21:37.820Z,5.50
2023-03-13T00:24:07.614Z,5.50
2023-03-13T00:26:36.012Z,5.50
2023-03-13T00:29:08.167Z,5.40
2023-03-13T00:31:37.127Z,5.40
2023-03-13T00:34:07.388Z,5.40
2023-03-13T00:36:36.744Z,5.30
2023-03-13T00:39:08.299Z,5.30
2023-03-13T00:41:38.300Z,5.30
2023-03-13T00:44:08.238Z,5.30
2023-03-13T00:46:37.656Z,5.30
2023-03-13T00:49:06.987Z,5.30
2023-03-13T00:51:35.893Z,5.30
2023-03-13T00:54:06.603Z,5.30
2023-03-13T00:56:35.203Z,5.30
2023-03-13T00:59:03.109Z,5.20
2023-03-13T01:01:35.174Z,5.30
2023-03-13T01:04:06.935Z,5.30
2023-03-13T01:06:37.785Z,5.20
2023-03-13T01:09:07.582Z,5.20
2023-03-13T01:11:37.516Z,5.20
2023-03-13T01:14:08.560Z,5.20
2023-03-13T01:16:38.868Z,5.20
2023-03-13T01:19:11.815Z,5.20
2023-03-13T01:21:42.037Z,5.20
2023-03-13T01:24:11.648Z,5.20
2023-03-13T01:26:39.826Z,5.20
2023-03-13T01:29:08.765Z,5.10
2023-03-13T01:31:40.649Z,5.10
2023-03-13T01:34:11.437Z,5.00
2023-03-13T01:36:40.417Z,5.00
2023-03-13T01:39:09.053Z,5.10
2023-03-13T01:41:38.845Z,5.10
2023-03-13T01:44:07.330Z,5.00
2023-03-13T01:46:40.153Z,5.00
2023-03-13T01:49:17.160Z,5.00
2023-03-13T01:52:08.643Z,5.00
2023-03-13T01:54:47.968Z,4.90
2023-03-13T01:57:22.558Z,4.90
2023-03-13T02:00:16.945Z,4.90
2023-03-13T02:02:51.918Z,4.90
2023-03-13T02:05:23.843Z,4.90
2023-03-13T02:07:56.778Z,4.90
2023-03-13T02:10:27.036Z,4.90
2023-03-13T02:12:58.830Z,4.90
2023-03-13T02:15:29.025Z,4.90
2023-03-13T02:18:00.666Z,4.90
2023-03-13T02:20:28.683Z,4.90
2023-03-13T02:23:01.375Z,4.90
2023-03-13T02:25:42.912Z,4.90
2023-03-13T02:28:17.143Z,4.90
2023-03-13T02:30:46.496Z,4.90
2023-03-13T02:33:16.897Z,4.80
2023-03-13T02:35:47.677Z,4.70
2023-03-13T02:38:21.522Z,4.70
2023-03-13T02:40:53.792Z,4.70
2023-03-13T02:43:27.205Z,4.60
2023-03-13T02:46:05.208Z,4.60
2023-03-13T02:48:38.764Z,4.50
2023-03-13T02:51:15.711Z,4.30
2023-03-13T02:53:48.491Z,4.20
2023-03-13T02:56:23.034Z,4.20
2023-03-13T02:58:51.488Z,4.20
2023-03-13T03:01:26.910Z,4.20
2023-03-13T03:03:55.253Z,4.10
2023-03-13T03:06:23.212Z,4.10
2023-03-13T03:08:52.594Z,4.10
2023-03-13T03:11:22.144Z,4.10
2023-03-13T03:13:57.264Z,4.10
2023-03-13T03:16:26.378Z,4.10
2023-03-13T03:18:54.443Z,4.10
2023-03-13T03:21:23.863Z,4.00
2023-03-13T03:23:53.084Z,4.10
2023-03-13T03:26:22.777Z,4.10
2023-03-13T03:28:51.317Z,4.20
2023-03-13T03:31:20.653Z,4.20
2023-03-13T03:33:48.967Z,4.20
2023-03-13T03:36:21.683Z,4.20
2023-03-13T03:38:50.610Z,4.20
2023-03-13T03:41:23.707Z,4.30
2023-03-13T03:43:51.662Z,4.30
2023-03-13T03:46:25.516Z,4.30
2023-03-13T03:48:54.840Z,4.30
2023-03-13T03:51:23.218Z,4.20
2023-03-13T03:58:06.034Z,4.30
2023-03-13T04:01:00.001Z,4.20
2023-03-13T04:03:32.523Z,4.20
2023-03-13T04:06:01.069Z,4.20
2023-03-13T04:08:31.767Z,4.20
2023-03-13T04:11:01.902Z,4.20
2023-03-13T04:13:34.086Z,4.20
2023-03-13T04:16:08.112Z,4.20
2023-03-13T04:18:37.546Z,4.20
2023-03-13T04:21:07.635Z,4.20
2023-03-13T04:23:44.788Z,4.20
2023-03-13T04:26:15.517Z,4.20
2023-03-13T04:28:46.858Z,4.20
2023-03-13T04:31:20.848Z,4.20
2023-03-13T04:34:11.749Z,4.20
2023-03-13T04:36:51.305Z,4.20
2023-03-13T04:39:38.552Z,4.30
2023-03-13T04:42:35.490Z,4.30
2023-03-13T04:45:15.680Z,4.30
2023-03-13T04:47:57.597Z,4.30
2023-03-13T04:50:39.845Z,4.30
2023-03-13T04:53:40.460Z,4.30
2023-03-13T04:56:42.339Z,4.30
2023-03-13T04:59:27.930Z,4.40
2023-03-13T05:02:21.040Z,4.40
2023-03-13T05:05:05.036Z,4.40
2023-03-13T05:07:53.603Z,4.50
2023-03-13T05:10:35.176Z,4.40
2023-03-13T05:13:08.935Z,4.40
2023-03-13T05:15:55.798Z,4.40
2023-03-13T05:18:46.942Z,4.40
2023-03-13T05:21:33.977Z,4.40
2023-03-13T05:24:25.271Z,4.40
2023-03-13T05:27:21.047Z,4.40
2023-03-13T05:30:11.894Z,4.40
2023-03-13T05:33:03.070Z,4.40
2023-03-13T05:36:09.213Z,4.50
2023-03-13T05:38:49.276Z,4.40
2023-03-13T05:41:51.836Z,4.50
2023-03-13T05:44:39.502Z,4.50
2023-03-13T05:47:26.407Z,4.50
2023-03-13T05:50:10.355Z,4.60
2023-03-13T05:53:07.787Z,4.50
2023-03-13T05:56:14.505Z,4.60
2023-03-13T05:59:01.295Z,4.60
2023-03-13T06:01:51.956Z,4.60
2023-03-13T06:04:31.593Z,4.70
2023-03-13T06:06:59.886Z,4.80
2023-03-13T06:09:30.264Z,4.80
2023-03-13T06:11:59.510Z,4.80
2023-03-13T06:14:28.717Z,4.90
2023-03-13T06:17:25.404Z,4.90
2023-03-13T06:19:53.862Z,5.00
2023-03-13T06:22:22.068Z,5.00
2023-03-13T06:24:51.939Z,5.00
2023-03-13T06:27:20.015Z,5.10
2023-03-13T06:29:48.870Z,5.10
2023-03-13T06:32:17.340Z,5.10
2023-03-13T06:34:45.455Z,5.20
2023-03-13T06:37:13.652Z,5.20
2023-03-13T06:39:42.490Z,5.20
2023-03-13T06:42:15.197Z,5.20
2023-03-13T06:44:45.071Z,5.20
2023-03-13T06:47:15.094Z,5.30
2023-03-13T06:49:43.943Z,5.30
2023-03-13T06:52:11.925Z,5.30
2023-03-13T06:54:41.304Z,5.30
2023-03-13T06:57:09.479Z,5.40
2023-03-13T06:59:40.295Z,5.40
2023-03-13T07:02:11.048Z,5.50
2023-03-13T07:04:41.547Z,5.50
2023-03-13T07:07:14.964Z,5.60
2023-03-13T07:09:50.317Z,5.70
2023-03-13T07:12:18.874Z,5.70
2023-03-13T07:14:48.979Z,5.80
2023-03-13T07:17:17.918Z,5.90
2023-03-13T07:19:47.002Z,5.90
2023-03-13T07:22:15.509Z,6.00
2023-03-13T07:24:44.210Z,6.00
2023-03-13T07:27:12.247Z,6.10
2023-03-13T07:29:40.344Z,6.10
2023-03-13T07:32:09.907Z,6.20
2023-03-13T07:34:38.007Z,6.20
2023-03-13T07:37:07.026Z,6.20
2023-03-13T07:39:34.990Z,6.20
2023-03-13T07:42:04.055Z,6.20
2023-03-13T07:44:33.143Z,6.30
2023-03-13T07:47:01.985Z,6.30
2023-03-13T07:49:32.986Z,6.40
2023-03-13T07:52:01.990Z,6.40
2023-03-13T07:54:31.024Z,6.50
2023-03-13T07:56:58.985Z,6.50
2023-03-13T07:59:28.309Z,6.50
2023-03-13T08:01:58.517Z,6.50
2023-03-13T08:04:26.646Z,6.60
2023-03-13T08:06:56.796Z,6.60
2023-03-13T08:09:25.545Z,6.70
2023-03-13T08:11:53.510Z,6.70
2023-03-13T08:14:23.463Z,6.70
2023-03-13T08:16:51.873Z,6.70
2023-03-13T08:19:20.575Z,6.70
2023-03-13T08:21:48.635Z,6.70
2023-03-13T08:24:19.249Z,6.70
2023-03-13T08:26:47.238Z,6.70
2023-03-13T08:29:17.019Z,6.70
2023-03-13T08:31:47.796Z,6.80
2023-03-13T08:34:19.489Z,6.80
2023-03-13T08:36:48.806Z,6.80
2023-03-13T08:39:21.134Z,6.90
2023-03-13T08:41:50.308Z,6.90
2023-03-13T08:44:21.376Z,7.00
2023-03-13T08:46:50.097Z,7.00
2023-03-13T08:49:19.039Z,7.00
2023-03-13T08:51:47.009Z,7.10
2023-03-13T08:54:15.020Z,7.20
2023-03-13T08:56:44.904Z,7.20
2023-03-13T08:59:12.866Z,7.30
2023-03-13T09:01:41.437Z,7.30
2023-03-13T09:04:09.681Z,7.30
2023-03-13T09:06:39.681Z,7.40
2023-03-13T09:09:08.784Z,7.50
2023-03-13T09:11:38.259Z,7.60
2023-03-13T09:14:09.410Z,7.70
2023-03-13T09:16:37.425Z,7.70
2023-03-13T09:19:06.042Z,7.80
2023-03-13T09:21:36.379Z,7.90
2023-03-13T09:24:05.067Z,8.00
2023-03-13T09:26:33.124Z,8.10
2023-03-13T09:29:01.184Z,8.10
2023-03-13T09:31:32.333Z,8.20
2023-03-13T09:34:01.525Z,8.40
2023-03-13T09:36:31.002Z,8.50
2023-03-13T09:39:00.920Z,8.70
2023-03-13T09:41:35.729Z,8.80
2023-03-13T09:44:08.087Z,9.00
2023-03-13T09:46:46.833Z,9.00
2023-03-13T09:49:24.258Z,9.10
2023-03-13T09:51:59.491Z,9.10
2023-03-13T09:54:33.894Z,9.30
2023-03-13T09:57:09.214Z,9.40
2023-03-13T09:59:46.393Z,9.60
2023-03-13T10:02:30.261Z,9.70
2023-03-13T10:05:08.610Z,9.90
2023-03-13T10:07:37.675Z,10.10
2023-03-13T10:10:12.620Z,10.30
2023-03-13T10:12:45.044Z,10.40
2023-03-13T10:15:34.470Z,10.50
2023-03-13T10:18:15.623Z,10.60
2023-03-13T10:20:44.724Z,10.70
2023-03-13T10:23:19.676Z,10.80
2023-03-13T10:25:47.773Z,10.80
2023-03-13T10:28:19.364Z,10.90
2023-03-13T10:30:52.241Z,11.10
2023-03-13T10:33:25.449Z,11.30
2023-03-13T10:36:07.272Z,11.40
2023-03-13T10:38:46.843Z,11.60
2023-03-13T10:41:30.910Z,11.60
2023-03-13T10:44:02.530Z,11.80
2023-03-13T10:46:32.822Z,11.90
2023-03-13T10:49:05.870Z,12.10
2023-03-13T10:51:38.668Z,12.20
2023-03-13T10:54:16.059Z,12.30
2023-03-13T10:56:44.173Z,12.40
2023-03-13T10:59:23.676Z,12.50
2023-03-13T11:01:52.724Z,12.50
2023-03-13T11:04:31.223Z,12.50
2023-03-13T11:07:07.215Z,12.50
2023-03-13T11:09:35.246Z,12.50
2023-03-13T11:12:06.638Z,12.40
2023-03-13T11:14:36.059Z,12.40
2023-03-13T11:17:10.807Z,12.30
2023-03-13T11:20:00.872Z,12.20
2023-03-13T11:22:44.858Z,12.10
2023-03-13T11:25:26.256Z,12.10
2023-03-13T11:28:10.879Z,12.10
2023-03-13T11:30:57.890Z,12.00
2023-03-13T11:33:34.185Z,12.00
2023-03-13T11:36:10.442Z,12.10
2023-03-13T11:38:42.171Z,12.20
2023-03-13T11:41:22.458Z,12.20
2023-03-13T11:44:09.135Z,12.30
2023-03-13T11:46:53.518Z,12.40
2023-03-13T11:49:35.731Z,12.50
2023-03-13T11:52:15.084Z,12.60
2023-03-13T11:55:08.029Z,12.70
2023-03-13T11:57:44.075Z,12.90
2023-03-13T12:00:24.195Z,13.20
2023-03-13T12:02:57.158Z,13.40
2023-03-13T12:05:28.629Z,13.40
2023-03-13T12:08:04.782Z,13.50
2023-03-13T12:10:38.153Z,13.70
2023-03-13T12:13:12.827Z,13.80
2023-03-13T12:15:45.671Z,13.80
2023-03-13T12:18:21.533Z,13.80
2023-03-13T12:20:57.608Z,13.80
2023-03-13T12:23:35.871Z,13.80
2023-03-13T12:26:08.421Z,13.90
2023-03-13T12:28:43.064Z,14.00
2023-03-13T12:31:20.904Z,14.20
2023-03-13T12:33:57.180Z,14.30
2023-03-13T12:36:30.758Z,14.40
2023-03-13T12:39:13.377Z,14.40
2023-03-13T12:41:44.425Z,14.40
2023-03-13T12:44:18.675Z,14.50
2023-03-13T12:46:48.932Z,14.70
2023-03-13T12:49:56.357Z,14.50
2023-03-13T12:52:40.405Z,14.50
2023-03-13T12:55:48.233Z,14.70
2023-03-13T12:58:30.454Z,14.80
2023-03-13T13:01:05.154Z,14.80
2023-03-13T13:03:36.539Z,15.00
2023-03-13T13:06:11.135Z,15.10
2023-03-13T13:08:42.176Z,15.10
2023-03-13T13:11:59.654Z,15.10
2023-03-13T13:14:58.928Z,15.10
2023-03-13T13:18:01.611Z,15.00
2023-03-13T13:20:40.095Z,14.90
2023-03-13T13:23:33.844Z,15.00
2023-03-13T13:26:48.573Z,15.10
2023-03-13T13:29:56.638Z,15.20
2023-03-13T13:32:50.902Z,15.30
2023-03-13T13:35:32.239Z,15.30
2023-03-13T13:38:37.229Z,15.30
2023-03-13T13:41:21.886Z,15.30
2023-03-13T13:44:11.451Z,15.30
2023-03-13T13:46:46.301Z,15.30
2023-03-13T13:49:18.902Z,15.40
2023-03-13T13:52:38.994Z,15.40
2023-03-13T13:55:44.107Z,15.40
2023-03-13T13:58:20.804Z,15.40
2023-03-13T14:00:55.480Z,15.50
2023-03-13T14:03:25.031Z,15.40
2023-03-13T14:05:57.787Z,15.40
2023-03-13T14:08:29.654Z,15.30
2023-03-13T14:11:10.969Z,15.30
2023-03-13T14:13:39.637Z,15.40
2023-03-13T14:16:24.736Z,15.40
2023-03-13T14:18:53.990Z,15.40
2023-03-13T14:21:25.626Z,15.40
2023-03-13T14:23:54.091Z,15.40
2023-03-13T14:26:24.611Z,15.40
2023-03-13T14:28:54.520Z,15.40
2023-03-13T14:31:24.535Z,15.40
2023-03-13T14:33:52.905Z,15.50
2023-03-13T14:36:21.476Z,15.50
2023-03-13T14:38:56.801Z,15.50
2023-03-13T14:41:29.536Z,15.40
2023-03-13T14:44:04.660Z,15.30
2023-03-13T14:46:34.490Z,15.20
2023-03-13T14:49:09.136Z,15.10
2023-03-13T14:51:40.894Z,15.20
2023-03-13T14:54:27.724Z,15.00
2023-03-13T14:57:13.104Z,15.00
2023-03-13T14:59:41.748Z,14.90
2023-03-13T15:02:19.898Z,15.00
2023-03-13T15:04:57.455Z,15.00
2023-03-13T15:07:27.722Z,15.00
2023-03-13T15:09:57.614Z,15.00
2023-03-13T15:12:26.180Z,15.00
2023-03-13T15:14:54.293Z,14.90
2023-03-13T15:17:24.259Z,14.80
2023-03-13T15:19:54.345Z,14.70
2023-03-13T15:22:28.195Z,14.70
2023-03-13T15:25:06.933Z,14.70
2023-03-13T15:27:36.316Z,14.70
2023-03-13T15:30:04.869Z,14.60
2023-03-13T15:32:35.863Z,14.50
2023-03-13T15:35:19.227Z,14.50
2023-03-13T15:37:47.386Z,14.50
2023-03-13T15:40:18.444Z,14.50
2023-03-13T15:42:46.588Z,14.40
2023-03-13T15:45:14.575Z,14.40
2023-03-13T15:47:42.578Z,14.30
2023-03-13T15:50:14.007Z,14.30
2023-03-13T15:52:42.234Z,14.30
2023-03-13T15:55:11.988Z,14.20
2023-03-13T15:57:46.207Z,14.20
2023-03-13T16:00:19.431Z,14.20
2023-03-13T16:02:48.115Z,14.10
2023-03-13T16:05:16.368Z,14.00
2023-03-13T16:07:44.447Z,14.00
2023-03-13T16:10:25.375Z,13.90
2023-03-13T16:12:56.176Z,13.90
2023-03-13T16:15:24.385Z,13.90
2023-03-13T16:17:52.318Z,13.80
2023-03-13T16:20:22.499Z,13.80
2023-03-13T16:22:53.449Z,13.80
2023-03-13T16:25:21.909Z,13.70
2023-03-13T16:27:51.186Z,13.70
2023-03-13T16:30:23.613Z,13.70
2023-03-13T16:32:52.115Z,13.60
2023-03-13T16:35:20.712Z,13.60
2023-03-13T16:37:48.716Z,13.50
2023-03-13T16:40:19.318Z,13.50
2023-03-13T16:42:47.558Z,13.40
2023-03-13T16:45:16.438Z,13.30
2023-03-13T16:47:46.899Z,13.30
2023-03-13T16:50:25.382Z,13.20
2023-03-13T16:52:54.543Z,13.10
2023-03-13T16:55:28.571Z,13.10
2023-03-13T16:57:57.149Z,13.00
2023-03-13T17:00:26.815Z,13.00
2023-03-13T17:02:57.531Z,12.90
2023-03-13T17:05:27.248Z,12.90
2023-03-13T17:07:55.701Z,12.80
2023-03-13T17:10:26.303Z,12.70
2023-03-13T17:12:54.840Z,12.70
2023-03-13T17:15:24.005Z,12.60
2023-03-13T17:17:54.054Z,12.60
2023-03-13T17:20:25.820Z,12.50
2023-03-13T17:22:56.191Z,12.40
2023-03-13T17:25:25.458Z,12.40
2023-03-13T17:27:53.703Z,12.30
2023-03-13T17:30:25.441Z,12.30
2023-03-13T17:32:54.439Z,12.30
2023-03-13T17:35:25.225Z,12.20
2023-03-13T17:37:54.128Z,12.10
2023-03-13T17:40:25.210Z,12.10
2023-03-13T17:42:54.990Z,12.00
2023-03-13T17:45:23.782Z,12.00
2023-03-13T17:47:54.151Z,11.90
2023-03-13T17:50:28.169Z,11.90
2023-03-13T17:52:56.864Z,11.90
2023-03-13T17:55:25.500Z,11.90
2023-03-13T17:57:53.711Z,11.80
2023-03-13T18:00:24.450Z,11.70
2023-03-13T18:02:53.348Z,11.60
2023-03-13T18:05:21.851Z,11.70
2023-03-13T18:07:52.374Z,11.60
2023-03-13T18:10:23.871Z,11.60
2023-03-13T18:12:52.648Z,11.60
2023-03-13T18:15:21.730Z,11.60
2023-03-13T18:17:50.672Z,11.50
2023-03-13T18:20:20.593Z,11.50
2023-03-13T18:22:48.575Z,11.50
2023-03-13T18:25:18.293Z,11.40
2023-03-13T18:27:46.658Z,11.30
2023-03-13T18:30:36.181Z,11.30
2023-03-13T18:33:04.398Z,11.20
2023-03-13T18:35:33.174Z,11.10
2023-03-13T18:38:01.277Z,11.10
2023-03-13T18:40:31.733Z,11.10
2023-03-13T18:43:00.121Z,11.00
2023-03-13T18:45:28.473Z,11.00
2023-03-13T18:47:56.483Z,10.90
2023-03-13T18:50:26.759Z,10.80
2023-03-13T18:52:56.209Z,10.80
2023-03-13T18:55:25.334Z,10.70
2023-03-13T18:57:55.607Z,10.70
2023-03-13T19:00:27.167Z,10.70
2023-03-13T19:02:55.916Z,10.70
2023-03-13T19:05:24.976Z,10.70
2023-03-13T19:07:53.310Z,10.60
2023-03-13T19:10:24.444Z,10.50
2023-03-13T19:12:55.359Z,10.40
2023-03-13T19:15:26.700Z,10.30
2023-03-13T19:17:56.539Z,10.40
2023-03-13T19:20:25.368Z,10.40
2023-03-13T19:22:55.190Z,10.40
2023-03-13T19:25:46.590Z,10.50
2023-03-13T19:28:15.908Z,10.50
2023-03-13T19:30:47.282Z,10.50
2023-03-13T19:33:16.083Z,10.50
2023-03-13T19:35:44.248Z,10.50
2023-03-13T19:38:13.311Z,10.50
2023-03-13T19:40:41.282Z,10.50
2023-03-13T19:43:09.322Z,10.40
2023-03-13T19:45:41.062Z,10.40
2023-03-13T19:48:10.730Z,10.30
2023-03-13T19:50:38.854Z,10.30
2023-03-13T19:53:06.896Z,10.20
2023-03-13T19:55:34.895Z,10.20
2023-03-13T19:58:06.938Z,10.20
2023-03-13T20:00:35.717Z,10.20
2023-03-13T20:03:05.537Z,10.10
2023-03-13T20:05:33.562Z,10.10
2023-03-13T20:08:02.338Z,10.00
2023-03-13T20:10:30.381Z,10.00
2023-03-13T20:12:58.465Z,10.00
2023-03-13T20:15:26.885Z,9.90
2023-03-13T20:17:55.264Z,9.90
2023-03-13T20:20:25.352Z,9.90
2023-03-13T20:22:56.336Z,9.90
2023-03-13T20:25:25.521Z,9.90
2023-03-13T20:27:54.162Z,9.80
2023-03-13T20:30:23.246Z,9.80
2023-03-13T20:32:59.266Z,9.80
2023-03-13T20:35:30.335Z,9.70
2023-03-13T20:38:00.809Z,9.50
2023-03-13T20:40:29.090Z,9.50
2023-03-13T20:42:58.405Z,9.50
2023-03-13T20:45:27.686Z,9.40
2023-03-13T20:47:56.283Z,9.40
2023-03-13T20:50:24.811Z,9.40
2023-03-13T20:52:55.518Z,9.40
2023-03-13T20:55:23.578Z,9.50
2023-03-13T20:57:51.516Z,9.40
2023-03-13T21:00:21.171Z,9.20
2023-03-13T21:02:50.907Z,9.20
2023-03-13T21:05:20.379Z,9.10
2023-03-13T21:07:48.764Z,9.00
2023-03-13T21:10:19.314Z,9.10
2023-03-13T21:12:47.393Z,9.10
2023-03-13T21:15:15.443Z,9.10
2023-03-13T21:17:43.452Z,9.20
2023-03-13T21:20:15.669Z,9.20
2023-03-13T21:22:45.021Z,9.20
2023-03-13T21:25:19.296Z,9.20
2023-03-13T21:27:47.293Z,9.10
2023-03-13T21:30:18.468Z,8.90
2023-03-13T21:32:49.200Z,8.90
2023-03-13T21:35:17.696Z,9.00
2023-03-13T21:37:45.905Z,8.90
2023-03-13T21:40:14.343Z,8.90
2023-03-13T21:42:47.913Z,8.80
2023-03-13T21:45:37.792Z,8.80
2023-03-13T21:48:06.561Z,8.70
2023-03-13T21:50:35.013Z,8.70
2023-03-13T21:53:03.064Z,8.80
2023-03-13T21:55:35.380Z,8.80
2023-03-13T21:58:05.850Z,8.70
2023-03-13T22:00:34.047Z,8.60
2023-03-13T22:03:02.226Z,8.40
2023-03-13T22:05:31.289Z,8.20
2023-03-13T22:07:59.273Z,8.10
2023-03-13T22:10:27.760Z,8.10
2023-03-13T22:12:55.728Z,8.00
2023-03-13T22:18:19.158Z,8.00
2023-03-13T22:20:48.122Z,7.90
2023-03-13T22:23:16.421Z,7.90
2023-03-13T22:25:47.093Z,7.80
2023-03-13T22:28:16.573Z,7.80
2023-03-13T22:30:46.648Z,8.00
2023-03-13T22:33:17.612Z,7.90
2023-03-13T22:35:48.634Z,7.90
2023-03-13T22:38:17.292Z,7.80
2023-03-13T22:40:45.252Z,7.80
2023-03-13T22:43:13.399Z,7.70
2023-03-13T22:45:44.088Z,7.80
2023-03-13T22:48:14.034Z,8.00
2023-03-13T22:50:42.107Z,8.00
2023-03-13T22:53:10.110Z,8.30
2023-03-13T22:55:56.974Z,8.30
2023-03-13T22:58:25.029Z,8.30
2023-03-13T23:00:54.691Z,8.30
2023-03-13T23:03:24.931Z,8.20
2023-03-13T23:05:52.970Z,8.20
2023-03-13T23:08:21.113Z,8.20
2023-03-13T23:10:49.421Z,8.20
2023-03-13T23:13:17.523Z,8.10
2023-03-13T23:18:38.396Z,8.10
2023-03-13T23:21:09.557Z,8.10
2023-03-13T23:23:38.566Z,8.10
2023-03-13T23:26:08.607Z,8.00
2023-03-13T23:28:37.705Z,8.00
2023-03-13T23:31:11.133Z,8.00
2023-03-13T23:33:40.957Z,8.00
2023-03-13T23:36:11.201Z,8.00
2023-03-13T23:38:39.737Z,7.90
2023-03-13T23:41:09.111Z,8.10
2023-03-13T23:43:37.381Z,8.10
2023-03-13T23:46:06.597Z,8.20
2023-03-13T23:48:38.012Z,8.30
2023-03-13T23:51:08.462Z,8.30
2023-03-13T23:53:38.004Z,8.30
2023-03-13T23:56:07.068Z,8.40
2023-03-13T23:58:35.285Z,8.40
